createdAt,value
2018-06-12T00:00:46.969Z,3.40
2018-06-12T00:03:14.205Z,2.20
2018-06-12T00:05:41.445Z,2.23
2018-06-12T00:08:08.705Z,2.80
2018-06-12T00:10:37.660Z,2.40
2018-06-12T00:13:05.046Z,2.30
2018-06-12T00:15:32.396Z,2.13
2018-06-12T00:17:59.665Z,2.30
2018-06-12T00:20:26.921Z,1.97
2018-06-12T00:22:54.176Z,2.63
2018-06-12T00:25:21.530Z,2.23
2018-06-12T00:27:48.766Z,2.90
2018-06-12T00:30:16.017Z,2.23
2018-06-12T00:32:43.293Z,2.23
2018-06-12T00:35:10.546Z,2.10
2018-06-12T00:37:37.807Z,2.43
2018-06-12T00:40:05.065Z,1.97
2018-06-12T00:42:32.294Z,2.30
2018-06-12T00:44:59.525Z,2.57
2018-06-12T00:47:26.822Z,2.80
2018-06-12T00:49:54.057Z,2.30
2018-06-12T00:52:21.307Z,2.40
2018-06-12T00:54:48.658Z,2.23
2018-06-12T00:57:15.892Z,2.13
2018-06-12T00:59:43.137Z,1.90
2018-06-12T01:02:10.371Z,2.60
2018-06-12T01:04:37.625Z,2.53
2018-06-12T01:07:04.857Z,2.73
2018-06-12T01:09:32.118Z,2.63
2018-06-12T01:11:59.368Z,2.67
2018-06-12T01:14:26.652Z,2.30
2018-06-12T01:16:53.897Z,2.30
2018-06-12T01:19:21.134Z,2.50
2018-06-12T01:21:48.405Z,2.70
2018-06-12T01:24:15.630Z,2.50
2018-06-12T01:26:42.875Z,2.43
2018-06-12T01:29:10.096Z,3.00
2018-06-12T01:31:37.426Z,2.40
2018-06-12T01:34:04.931Z,3.00
2018-06-12T01:36:32.157Z,2.57
2018-06-12T01:38:59.433Z,2.70
2018-06-12T01:41:26.702Z,3.00
2018-06-12T01:43:53.941Z,2.40
2018-06-12T01:46:21.208Z,2.90
2018-06-12T01:48:48.448Z,2.90
2018-06-12T01:51:15.701Z,2.10
2018-06-12T01:53:42.958Z,3.07
2018-06-12T01:56:10.195Z,2.33
2018-06-12T01:58:37.477Z,2.30
2018-06-12T02:01:04.745Z,2.70
2018-06-12T02:03:31.977Z,2.60
2018-06-12T02:05:59.217Z,3.30
2018-06-12T02:08:26.439Z,3.00
2018-06-12T02:10:53.665Z,2.73
2018-06-12T02:13:20.934Z,2.53
2018-06-12T02:15:48.236Z,2.87
2018-06-12T02:18:15.621Z,2.63
2018-06-12T02:20:42.848Z,2.17
2018-06-12T02:23:10.123Z,3.03
2018-06-12T02:25:37.357Z,3.40
2018-06-12T02:28:04.722Z,3.20
2018-06-12T02:30:31.994Z,2.80
2018-06-12T02:32:59.217Z,2.87
2018-06-12T02:35:26.465Z,2.30
2018-06-12T02:37:53.724Z,2.70
2018-06-12T02:40:20.974Z,2.60
2018-06-12T02:42:48.209Z,2.00
2018-06-12T02:45:15.461Z,3.23
2018-06-12T02:47:42.745Z,2.90
2018-06-12T02:50:09.972Z,3.10
2018-06-12T02:52:37.202Z,3.40
2018-06-12T02:55:04.457Z,3.40
2018-06-12T02:57:31.697Z,3.50
2018-06-12T02:59:58.934Z,3.10
2018-06-12T03:02:26.178Z,3.83
2018-06-12T03:04:53.434Z,3.17
2018-06-12T03:07:20.679Z,3.53
2018-06-12T03:09:47.901Z,3.47
2018-06-12T03:12:15.132Z,3.60
2018-06-12T03:14:42.406Z,3.50
2018-06-12T03:17:09.663Z,3.60
2018-06-12T03:19:36.961Z,4.50
2018-06-12T03:22:04.255Z,5.00
2018-06-12T03:24:31.506Z,5.57
2018-06-12T03:26:58.720Z,5.50
2018-06-12T03:29:25.969Z,6.47
2018-06-12T03:31:53.185Z,5.63
2018-06-12T03:34:20.434Z,5.60
2018-06-12T03:36:47.655Z,5.50
2018-06-12T03:39:14.926Z,5.60
2018-06-12T03:41:42.174Z,5.43
2018-06-12T03:44:09.402Z,5.27
2018-06-12T03:46:36.665Z,6.60
2018-06-12T03:49:03.944Z,5.70
2018-06-12T03:51:31.192Z,6.27
2018-06-12T03:53:58.437Z,6.63
2018-06-12T03:56:25.875Z,5.10
2018-06-12T03:58:53.110Z,6.03
2018-06-12T04:01:20.370Z,5.90
2018-06-12T04:03:47.646Z,5.90
2018-06-12T04:06:14.866Z,6.43
2018-06-12T04:08:42.143Z,6.47
2018-06-12T04:11:09.398Z,5.40
2018-06-12T04:13:36.666Z,6.10
2018-06-12T04:16:03.920Z,6.33
2018-06-12T04:18:31.174Z,6.30
2018-06-12T04:20:58.409Z,6.40
2018-06-12T04:23:25.652Z,6.20
2018-06-12T04:25:52.925Z,5.53
2018-06-12T04:28:20.293Z,5.83
2018-06-12T04:30:47.547Z,6.33
2018-06-12T04:33:14.793Z,6.10
2018-06-12T04:35:42.053Z,6.60
2018-06-12T04:38:09.289Z,6.80
2018-06-12T04:40:36.562Z,7.03
2018-06-12T04:43:03.874Z,7.00
2018-06-12T04:45:31.125Z,8.07
2018-06-12T04:47:58.372Z,8.20
2018-06-12T04:50:25.670Z,7.57
2018-06-12T04:52:52.893Z,8.03
2018-06-12T04:55:20.132Z,8.30
2018-06-12T04:57:48.956Z,8.10
2018-06-12T05:00:16.338Z,7.80
2018-06-12T05:02:43.586Z,7.80
2018-06-12T05:05:10.849Z,7.40
2018-06-12T05:07:38.104Z,7.97
2018-06-12T05:10:05.698Z,8.50
2018-06-12T05:12:32.939Z,7.33
2018-06-12T05:15:00.191Z,6.87
2018-06-12T05:17:27.451Z,7.47
2018-06-12T05:19:54.724Z,7.53
2018-06-12T05:22:22.162Z,6.53
2018-06-12T05:24:49.393Z,6.13
2018-06-12T05:27:16.654Z,6.13
2018-06-12T05:29:43.909Z,6.57
2018-06-12T05:32:11.163Z,6.27
2018-06-12T05:34:38.422Z,6.47
2018-06-12T05:37:05.666Z,6.53
2018-06-12T05:39:33.013Z,5.90
2018-06-12T05:42:00.275Z,6.40
2018-06-12T05:44:27.497Z,7.27
2018-06-12T05:46:54.790Z,6.30
2018-06-12T05:49:22.010Z,5.93
2018-06-12T05:51:49.292Z,5.27
2018-06-12T05:54:16.690Z,5.97
2018-06-12T05:56:43.949Z,6.30
2018-06-12T05:59:11.285Z,6.00
2018-06-12T06:01:38.513Z,6.10
2018-06-12T06:04:05.777Z,6.00
2018-06-12T06:06:33.034Z,5.80
2018-06-12T06:09:00.304Z,5.80
2018-06-12T06:11:27.578Z,6.37
2018-06-12T06:13:54.821Z,5.17
2018-06-12T06:16:22.062Z,5.03
2018-06-12T06:18:49.317Z,5.67
2018-06-12T06:21:16.592Z,6.40
2018-06-12T06:23:43.954Z,5.93
2018-06-12T06:26:11.206Z,5.70
2018-06-12T06:28:38.441Z,5.57
2018-06-12T06:31:05.686Z,4.70
2018-06-12T06:33:32.941Z,5.47
2018-06-12T06:36:00.164Z,6.10
2018-06-12T06:38:27.452Z,4.60
2018-06-12T06:40:54.707Z,4.00
2018-06-12T06:43:21.966Z,4.57
2018-06-12T06:45:50.162Z,4.30
2018-06-12T06:48:17.459Z,5.33
2018-06-12T06:50:44.945Z,4.83
2018-06-12T06:53:12.195Z,3.83
2018-06-12T06:55:39.485Z,4.30
2018-06-12T06:58:06.768Z,3.80
2018-06-12T07:00:34.049Z,3.87
2018-06-12T07:03:01.285Z,4.30
2018-06-12T07:05:28.565Z,3.73
2018-06-12T07:07:55.798Z,3.80
2018-06-12T07:10:23.087Z,4.37
2018-06-12T07:12:50.388Z,4.47
2018-06-12T07:15:17.628Z,4.30
2018-06-12T07:17:44.869Z,3.50
2018-06-12T07:20:13.140Z,2.83
2018-06-12T07:22:40.443Z,3.10
2018-06-12T07:25:07.728Z,2.90
2018-06-12T07:27:34.981Z,2.70
2018-06-12T07:30:02.388Z,3.00
2018-06-12T07:32:29.830Z,2.80
2018-06-12T07:34:57.058Z,2.80
2018-06-12T07:37:24.318Z,2.90
2018-06-12T07:39:51.561Z,2.80
2018-06-12T07:42:18.812Z,2.40
2018-06-12T07:44:46.104Z,2.57
2018-06-12T07:47:13.345Z,2.90
2018-06-12T07:49:40.611Z,2.50
2018-06-12T07:52:07.862Z,2.33
2018-06-12T07:54:35.097Z,2.50
2018-06-12T07:57:02.362Z,2.43
2018-06-12T07:59:29.630Z,2.60
2018-06-12T08:01:56.938Z,2.60
2018-06-12T08:04:24.186Z,2.80
2018-06-12T08:06:51.446Z,2.43
2018-06-12T08:09:18.731Z,2.83
2018-06-12T08:11:45.974Z,2.30
2018-06-12T08:14:13.229Z,2.60
2018-06-12T08:16:40.485Z,2.67
2018-06-12T08:19:07.776Z,2.77
2018-06-12T08:21:35.022Z,2.70
2018-06-12T08:24:02.273Z,2.63
2018-06-12T08:26:29.524Z,3.23
2018-06-12T08:28:56.777Z,3.27
2018-06-12T08:31:24.078Z,3.03
2018-06-12T08:33:51.330Z,2.40
2018-06-12T08:36:18.577Z,2.70
2018-06-12T08:38:45.830Z,3.00
2018-06-12T08:41:13.120Z,2.40
2018-06-12T08:43:40.390Z,3.60
2018-06-12T08:46:07.639Z,2.67
2018-06-12T08:48:34.885Z,2.30
2018-06-12T08:51:02.122Z,2.63
2018-06-12T08:53:29.368Z,2.33
2018-06-12T08:55:56.694Z,2.80
2018-06-12T08:58:23.998Z,1.87
2018-06-12T09:00:51.302Z,2.40
2018-06-12T09:03:18.594Z,2.73
2018-06-12T09:05:45.843Z,2.27
2018-06-12T09:08:13.121Z,2.40
2018-06-12T09:10:40.356Z,2.07
2018-06-12T09:13:07.636Z,2.30
2018-06-12T09:15:34.884Z,2.50
2018-06-12T09:18:02.127Z,2.53
2018-06-12T09:20:30.347Z,2.10
2018-06-12T09:22:57.581Z,2.60
2018-06-12T09:25:24.837Z,2.20
2018-06-12T09:27:52.089Z,2.00
2018-06-12T09:30:19.454Z,2.27
2018-06-12T09:32:46.800Z,2.20
2018-06-12T09:35:14.058Z,2.17
2018-06-12T09:37:41.303Z,2.27
2018-06-12T09:40:08.565Z,2.27
2018-06-12T09:42:35.828Z,2.30
2018-06-12T09:45:03.141Z,2.37
2018-06-12T09:47:30.410Z,2.50
2018-06-12T09:49:57.745Z,2.40
2018-06-12T09:52:25.436Z,2.80
2018-06-12T09:54:53.376Z,2.30
2018-06-12T09:57:20.645Z,2.27
2018-06-12T09:59:47.898Z,2.03
2018-06-12T10:02:15.166Z,2.37
2018-06-12T10:04:42.463Z,2.03
2018-06-12T10:07:09.805Z,2.20
2018-06-12T10:09:37.129Z,2.57
2018-06-12T10:12:04.418Z,2.83
2018-06-12T10:14:31.667Z,2.53
2018-06-12T10:16:58.961Z,1.97
2018-06-12T10:19:26.198Z,2.00
2018-06-12T10:21:53.504Z,2.70
2018-06-12T10:24:20.766Z,2.10
2018-06-12T10:26:48.013Z,2.73
2018-06-12T10:29:15.257Z,2.13
2018-06-12T10:31:42.510Z,2.27
2018-06-12T10:34:09.889Z,2.37
2018-06-12T10:36:37.144Z,2.80
2018-06-12T10:39:06.337Z,2.13
2018-06-12T10:41:33.596Z,2.40
2018-06-12T10:44:00.863Z,2.27
2018-06-12T10:46:28.113Z,2.57
2018-06-12T10:48:55.373Z,2.57
2018-06-12T10:51:22.658Z,2.47
2018-06-12T10:53:49.925Z,3.40
2018-06-12T10:56:17.182Z,5.23
2018-06-12T10:58:44.477Z,2.83
2018-06-12T11:01:11.751Z,2.73
2018-06-12T11:03:39.061Z,2.60
2018-06-12T11:06:06.454Z,2.30
2018-06-12T11:08:33.738Z,2.30
2018-06-12T11:11:00.998Z,2.40
2018-06-12T11:13:28.277Z,1.93
2018-06-12T11:15:55.531Z,2.10
2018-06-12T11:18:22.814Z,2.17
2018-06-12T11:20:50.138Z,2.20
2018-06-12T11:23:17.523Z,2.40
2018-06-12T11:25:44.812Z,3.17
2018-06-12T11:28:12.073Z,2.27
2018-06-12T11:30:39.395Z,2.40
2018-06-12T11:33:06.689Z,2.27
2018-06-12T11:35:34.095Z,3.67
2018-06-12T11:38:01.583Z,2.40
2018-06-12T11:40:28.839Z,2.93
2018-06-12T11:42:56.093Z,2.60
2018-06-12T11:45:23.338Z,2.50
2018-06-12T11:47:50.620Z,2.40
2018-06-12T11:50:17.865Z,3.37
2018-06-12T11:52:45.126Z,3.30
2018-06-12T11:55:12.354Z,2.77
2018-06-12T11:57:39.614Z,2.67
2018-06-12T12:00:06.961Z,2.93
2018-06-12T12:02:34.209Z,3.30
2018-06-12T12:05:01.485Z,3.47
2018-06-12T12:07:28.730Z,2.80
2018-06-12T12:09:55.981Z,3.13
2018-06-12T12:12:23.326Z,3.57
2018-06-12T12:14:50.598Z,2.33
2018-06-12T12:17:17.933Z,3.30
2018-06-12T12:19:45.277Z,5.87
2018-06-12T12:22:12.536Z,3.17
2018-06-12T12:24:39.841Z,2.70
2018-06-12T12:27:07.113Z,2.50
2018-06-12T12:29:34.483Z,3.33
2018-06-12T12:32:01.845Z,3.07
2018-06-12T12:34:29.102Z,3.20
2018-06-12T12:36:56.381Z,3.17
2018-06-12T12:39:23.646Z,3.20
2018-06-12T12:41:50.936Z,2.80
2018-06-12T12:44:19.193Z,2.90
2018-06-12T12:46:46.551Z,2.83
2018-06-12T12:49:13.799Z,2.60
2018-06-12T12:51:41.149Z,2.80
2018-06-12T12:54:08.413Z,2.90
2018-06-12T12:56:35.673Z,3.17
2018-06-12T12:59:02.970Z,3.00
2018-06-12T13:01:30.240Z,3.20
2018-06-12T13:03:57.498Z,3.20
2018-06-12T13:06:24.768Z,2.53
2018-06-12T13:08:52.233Z,3.00
2018-06-12T13:11:19.477Z,1.90
2018-06-12T13:13:46.745Z,2.50
2018-06-12T13:16:14.094Z,3.00
2018-06-12T13:18:41.356Z,2.67
2018-06-12T13:21:08.609Z,2.70
2018-06-12T13:23:35.863Z,2.67
2018-06-12T13:26:03.133Z,3.00
2018-06-12T13:28:30.390Z,2.87
2018-06-12T13:30:57.711Z,2.70
2018-06-12T13:33:25.089Z,3.10
2018-06-12T13:35:52.615Z,2.80
2018-06-12T13:38:19.882Z,2.77
2018-06-12T13:40:47.152Z,2.60
2018-06-12T13:43:14.417Z,2.70
2018-06-12T13:45:41.672Z,2.60
2018-06-12T13:48:08.947Z,2.97
2018-06-12T13:50:36.221Z,2.97
2018-06-12T13:53:03.558Z,2.70
2018-06-12T13:55:30.808Z,3.37
2018-06-12T13:57:58.106Z,2.77
2018-06-12T14:00:27.672Z,3.33
2018-06-12T14:02:54.916Z,2.30
2018-06-12T14:05:22.192Z,2.47
2018-06-12T14:07:49.426Z,2.53
2018-06-12T14:10:16.688Z,2.37
2018-06-12T14:12:43.977Z,2.63
2018-06-12T14:15:11.236Z,2.70
2018-06-12T14:17:38.525Z,2.47
2018-06-12T14:20:05.797Z,2.30
2018-06-12T14:22:33.124Z,1.90
2018-06-12T14:25:00.390Z,2.07
2018-06-12T14:27:27.748Z,1.80
2018-06-12T14:29:55.034Z,2.53
2018-06-12T14:32:22.397Z,3.40
2018-06-12T14:34:49.631Z,3.17
2018-06-12T14:37:16.877Z,3.90
2018-06-12T14:39:44.156Z,3.10
2018-06-12T14:42:11.546Z,5.20
2018-06-12T14:44:38.806Z,4.00
2018-06-12T14:47:06.084Z,3.77
2018-06-12T14:49:33.340Z,4.53
2018-06-12T14:52:00.614Z,3.00
2018-06-12T14:54:27.871Z,1.77
2018-06-12T14:56:55.106Z,2.50
2018-06-12T14:59:22.391Z,2.60
2018-06-12T15:01:49.669Z,3.17
2018-06-12T15:04:17.169Z,2.57
2018-06-12T15:06:45.247Z,2.40
2018-06-12T15:09:12.740Z,2.50
2018-06-12T15:11:40.097Z,3.33
2018-06-12T15:14:07.400Z,4.13
2018-06-12T15:16:34.669Z,3.10
2018-06-12T15:19:01.980Z,3.70
2018-06-12T15:21:29.384Z,2.90
2018-06-12T15:23:56.742Z,2.90
2018-06-12T15:26:24.093Z,3.87
2018-06-12T15:28:51.370Z,3.13
2018-06-12T15:31:18.664Z,3.67
2018-06-12T15:33:45.948Z,3.80
2018-06-12T15:36:13.315Z,3.20
2018-06-12T15:38:41.069Z,3.80
2018-06-12T15:41:08.435Z,2.80
2018-06-12T15:43:35.673Z,4.90
2018-06-12T15:46:02.926Z,6.20
2018-06-12T15:48:30.212Z,6.10
2018-06-12T15:50:58.017Z,7.27
2018-06-12T15:53:25.431Z,7.27
2018-06-12T15:55:52.893Z,7.87
2018-06-12T15:58:21.325Z,6.50
2018-06-12T16:00:48.799Z,4.73
2018-06-12T16:03:16.319Z,5.07
2018-06-12T16:05:43.799Z,4.20
2018-06-12T16:08:11.222Z,5.40
2018-06-12T16:10:38.640Z,5.00
2018-06-12T16:13:06.014Z,4.20
2018-06-12T16:15:33.418Z,2.60
2018-06-12T16:18:00.786Z,3.03
2018-06-12T16:20:28.081Z,2.87
2018-06-12T16:22:55.380Z,1.90
2018-06-12T16:25:22.714Z,1.70
2018-06-12T16:27:49.970Z,2.20
2018-06-12T16:30:17.263Z,2.40
2018-06-12T16:32:44.577Z,2.60
2018-06-12T16:35:11.846Z,2.37
2018-06-12T16:37:39.201Z,2.27
2018-06-12T16:40:06.527Z,1.90
2018-06-12T16:42:33.815Z,2.00
2018-06-12T16:45:01.118Z,1.83
2018-06-12T16:47:28.456Z,2.47
2018-06-12T16:49:55.759Z,3.00
2018-06-12T16:52:23.123Z,2.70
2018-06-12T16:54:50.446Z,2.50
2018-06-12T16:57:17.751Z,2.50
2018-06-12T16:59:45.021Z,2.30
2018-06-12T17:02:12.337Z,2.57
2018-06-12T17:04:39.631Z,1.83
2018-06-12T17:07:06.883Z,2.20
2018-06-12T17:09:34.125Z,2.00
2018-06-12T17:12:01.439Z,3.20
2018-06-12T17:14:28.748Z,2.17
2018-06-12T17:16:56.022Z,3.40
2018-06-12T17:19:23.336Z,3.00
2018-06-12T17:21:50.599Z,2.50
2018-06-12T17:24:17.883Z,2.67
2018-06-12T17:26:45.151Z,3.30
2018-06-12T17:29:12.432Z,2.70
2018-06-12T17:31:39.720Z,2.33
2018-06-12T17:34:06.953Z,2.57
2018-06-12T17:36:34.260Z,2.90
2018-06-12T17:39:01.749Z,2.63
2018-06-12T17:41:29.055Z,2.13
2018-06-12T17:43:56.557Z,2.70
2018-06-12T17:46:23.935Z,2.40
2018-06-12T17:48:51.225Z,2.70
2018-06-12T17:51:18.500Z,2.60
2018-06-12T17:53:45.757Z,2.70
2018-06-12T17:56:13.061Z,2.60
2018-06-12T17:58:40.384Z,2.17
2018-06-12T18:01:07.702Z,2.37
2018-06-12T18:03:35.124Z,2.10
2018-06-12T18:06:02.401Z,2.27
2018-06-12T18:08:29.893Z,2.40
2018-06-12T18:10:57.419Z,2.43
2018-06-12T18:13:24.816Z,1.77
2018-06-12T18:15:52.151Z,2.03
2018-06-12T18:18:19.610Z,2.17
2018-06-12T18:20:47.504Z,2.43
2018-06-12T18:23:15.081Z,2.40
2018-06-12T18:25:42.495Z,2.47
2018-06-12T18:28:09.930Z,2.77
2018-06-12T18:30:37.481Z,2.53
2018-06-12T18:33:04.963Z,3.20
2018-06-12T18:35:32.349Z,3.17
2018-06-12T18:37:59.804Z,3.10
2018-06-12T18:40:27.498Z,2.53
2018-06-12T18:42:55.897Z,2.13
2018-06-12T18:58:28.538Z,2.63
2018-06-12T19:00:56.056Z,2.07
2018-06-12T19:03:23.777Z,2.30
2018-06-12T19:05:51.527Z,2.30
2018-06-12T19:08:19.028Z,2.40
2018-06-12T19:10:46.639Z,2.67
2018-06-12T19:13:14.366Z,6.70
2018-06-12T19:15:42.058Z,2.07
2018-06-12T19:18:09.638Z,2.20
2018-06-12T19:20:37.502Z,2.37
2018-06-12T19:23:05.280Z,2.43
2018-06-12T19:25:32.929Z,2.10
2018-06-12T19:28:00.517Z,2.10
2018-06-12T19:30:28.141Z,2.27
2018-06-12T19:32:55.766Z,2.70
2018-06-12T19:35:23.602Z,2.57
2018-06-12T19:37:51.363Z,2.47
2018-06-12T19:40:19.216Z,2.77
2018-06-12T19:42:46.955Z,2.10
2018-06-12T19:45:14.682Z,2.20
2018-06-12T19:47:42.476Z,2.20
2018-06-12T19:50:10.278Z,3.27
2018-06-12T19:52:37.943Z,2.63
2018-06-12T19:55:05.679Z,1.83
2018-06-12T19:57:33.358Z,1.90
2018-06-12T20:00:01.152Z,1.77
2018-06-12T20:02:28.720Z,2.07
2018-06-12T20:04:56.214Z,1.57
2018-06-12T20:07:24.276Z,1.57
2018-06-12T20:09:51.923Z,1.60
2018-06-12T20:12:19.396Z,1.70
2018-06-12T20:14:46.942Z,1.80
2018-06-12T20:17:14.399Z,1.63
2018-06-12T20:19:41.962Z,1.23
2018-06-12T20:22:09.418Z,1.90
2018-06-12T20:24:36.860Z,1.80
2018-06-12T20:27:04.274Z,1.80
2018-06-12T20:29:31.650Z,1.90
2018-06-12T20:31:59.001Z,2.00
2018-06-12T20:34:26.460Z,1.67
2018-06-12T20:36:54.067Z,1.97
2018-06-12T20:39:21.439Z,1.73
2018-06-12T20:41:48.813Z,2.30
2018-06-12T20:44:16.178Z,1.70
2018-06-12T20:46:43.783Z,1.70
2018-06-12T20:49:11.292Z,1.90
2018-06-12T20:51:38.778Z,1.63
2018-06-12T20:54:06.318Z,1.93
2018-06-12T20:56:33.791Z,2.00
2018-06-12T20:59:01.053Z,2.13
2018-06-12T21:01:28.632Z,2.10
2018-06-12T21:03:56.088Z,2.33
2018-06-12T21:06:23.550Z,2.13
2018-06-12T21:08:50.932Z,2.00
2018-06-12T21:11:18.195Z,2.67
2018-06-12T21:13:45.497Z,2.17
2018-06-12T21:16:12.778Z,2.00
2018-06-12T21:18:40.074Z,1.70
2018-06-12T21:21:07.373Z,2.17
2018-06-12T21:23:34.685Z,1.90
2018-06-12T21:26:01.978Z,3.00
2018-06-12T21:28:29.321Z,2.03
2018-06-12T21:30:56.585Z,2.57
2018-06-12T21:33:23.893Z,1.80
2018-06-12T21:35:51.146Z,2.67
2018-06-12T21:38:18.446Z,1.97
2018-06-12T21:40:45.773Z,2.17
2018-06-12T21:43:13.144Z,2.00
2018-06-12T21:45:40.381Z,2.37
2018-06-12T21:48:07.649Z,1.83
2018-06-12T21:50:34.906Z,3.00
2018-06-12T21:53:02.177Z,2.33
2018-06-12T21:55:29.474Z,2.83
2018-06-12T21:57:56.913Z,1.93
2018-06-12T22:00:29.910Z,1.80
2018-06-12T22:02:57.202Z,2.40
2018-06-12T22:05:24.456Z,3.50
2018-06-12T22:07:51.869Z,1.90
2018-06-12T22:10:19.103Z,1.80
2018-06-12T22:12:46.384Z,1.73
2018-06-12T22:15:13.619Z,1.73
2018-06-12T22:17:46.609Z,1.57
2018-06-12T22:20:13.862Z,1.40
2018-06-12T22:22:41.214Z,1.67
2018-06-12T22:25:08.505Z,1.50
2018-06-12T22:27:35.745Z,1.93
2018-06-12T22:30:03.096Z,1.47
2018-06-12T22:32:30.338Z,2.07
2018-06-12T22:34:57.641Z,1.63
2018-06-12T22:37:24.917Z,2.00
2018-06-12T22:39:52.142Z,1.90
2018-06-12T22:42:19.468Z,2.13
2018-06-12T22:44:46.698Z,1.70
2018-06-12T22:47:13.972Z,1.70
2018-06-12T22:49:41.265Z,1.63
2018-06-12T22:52:08.577Z,2.20
2018-06-12T22:54:35.898Z,2.10
2018-06-12T22:57:03.142Z,2.27
2018-06-12T22:59:30.399Z,2.20
2018-06-12T23:01:57.669Z,2.70
2018-06-12T23:04:25.121Z,2.33
2018-06-12T23:06:52.366Z,2.37
2018-06-12T23:09:19.628Z,2.50
2018-06-12T23:11:46.870Z,2.90
2018-06-12T23:14:14.306Z,2.80
2018-06-12T23:16:41.580Z,3.00
2018-06-12T23:19:08.987Z,2.80
2018-06-12T23:22:11.552Z,3.23
2018-06-12T23:24:38.794Z,2.70
2018-06-12T23:27:06.152Z,3.67
2018-06-12T23:29:33.570Z,3.10
2018-06-12T23:32:00.803Z,2.97
2018-06-12T23:34:28.046Z,3.03
2018-06-12T23:36:55.289Z,2.40
2018-06-12T23:39:22.568Z,2.93
2018-06-12T23:41:50.000Z,2.93
2018-06-12T23:44:18.216Z,2.13
2018-06-12T23:46:45.450Z,2.43
2018-06-12T23:49:12.811Z,2.63
2018-06-12T23:51:40.049Z,2.33
2018-06-12T23:54:07.322Z,2.67
2018-06-12T23:56:34.659Z,2.00
2018-06-12T23:59:01.990Z,2.97
